Terminal Aerodrome Forecast
Issued by NWS

Home | Current Version | Previous Version | Text Only | Print | Product List | Glossary On
Versions: 1 2 3 4 5 6 7 8 9 10 11 12 13 14 15 16 17 18 19 20 21 22 23 24
977
FTUS45 KGJT 102014 AAA
TAFVEL
TAF AMD
KVEL 102014Z 1020/1118 VRB04KT P6SM VCSH SCT035 OVC050
     FM110200 26005KT P6SM -SN OVC025
     FM111000 27006KT P6SM BKN025
     FM111600 25006KT P6SM SCT020 SCT250=

USA.gov is the U.S. government's official web portal to all federal, state and local government web resources and services.